createdAt,value
2023-05-18T04:35:16.025Z,23.38
2023-05-18T04:40:18.332Z,27.23
2023-05-18T04:45:21.930Z,15.77
2023-05-18T04:50:25.450Z,13.38
2023-05-18T04:55:28.370Z,22.85
2023-05-18T05:00:31.391Z,13.20
2023-05-18T05:05:35.070Z,18.50
2023-05-18T05:10:37.354Z,28.10
2023-05-18T05:15:39.447Z,28.95
2023-05-18T05:20:42.859Z,23.30
2023-05-18T05:26:00.962Z,29.13
2023-05-18T05:32:01.871Z,18.17
2023-05-18T05:37:05.923Z,11.32
2023-05-18T05:43:06.490Z,21.92
2023-05-18T05:48:09.709Z,21.85
2023-05-18T05:53:17.842Z,34.08
2023-05-18T05:58:19.943Z,24.90
2023-05-18T06:03:22.108Z,23.38
2023-05-18T06:08:40.233Z,23.23
2023-05-18T06:13:45.159Z,18.45
2023-05-18T06:18:48.955Z,23.25
2023-05-18T06:23:52.313Z,9.32
2023-05-18T06:28:54.824Z,9.63
2023-05-18T06:33:56.937Z,9.10
2023-05-18T06:39:00.577Z,10.50
2023-05-18T06:44:03.300Z,7.47
2023-05-18T06:50:04.260Z,14.25
2023-05-18T06:56:06.901Z,9.48
2023-05-18T07:01:09.001Z,12.18
2023-05-18T07:06:11.244Z,11.10
2023-05-18T07:11:14.824Z,15.25
2023-05-18T07:16:16.863Z,11.90
2023-05-18T07:21:18.860Z,7.95
2023-05-18T07:26:22.688Z,7.38
2023-05-18T07:31:26.510Z,9.52
2023-05-18T07:36:28.700Z,12.95
2023-05-18T07:41:32.077Z,9.25
2023-05-18T07:46:34.852Z,4.68
2023-05-18T07:51:36.869Z,7.45
2023-05-18T07:56:40.780Z,3.67
2023-05-18T08:01:46.139Z,3.78
2023-05-18T08:06:48.148Z,3.17
2023-05-18T08:11:52.293Z,4.47
2023-05-18T08:16:56.949Z,4.15
2023-05-18T08:21:59.159Z,3.75
2023-05-18T08:27:03.566Z,7.22
2023-05-18T08:32:07.148Z,6.18
2023-05-18T08:37:09.689Z,6.18
2023-05-18T08:42:19.137Z,5.93
2023-05-18T08:47:26.110Z,4.88
2023-05-18T08:52:35.678Z,8.48
2023-05-18T08:57:39.451Z,4.85
2023-05-18T09:02:42.077Z,14.05
2023-05-18T09:07:44.391Z,5.60
2023-05-18T09:12:50.749Z,5.35
2023-05-18T09:17:52.814Z,5.00
2023-05-18T09:22:54.886Z,9.00
2023-05-18T09:27:58.347Z,8.00
2023-05-18T09:33:00.486Z,9.43
2023-05-18T09:38:03.867Z,6.95
2023-05-18T09:43:08.287Z,4.28
2023-05-18T09:48:11.079Z,3.75
2023-05-18T09:53:14.444Z,4.07
2023-05-18T09:58:17.929Z,2.00
2023-05-18T10:03:22.216Z,6.93
2023-05-18T10:08:33.333Z,4.75
2023-05-18T10:14:30.505Z,2.40
2023-05-18T10:20:29.906Z,6.25
2023-05-18T10:26:34.387Z,2.08
2023-05-18T10:32:38.923Z,2.97
2023-05-18T10:38:45.078Z,6.95
2023-05-18T10:50:50.859Z,7.40
2023-05-18T10:56:53.999Z,8.43
2023-05-18T11:02:55.553Z,4.82
2023-05-18T11:09:01.711Z,8.32
2023-05-18T11:15:02.498Z,5.75
2023-05-18T11:21:49.616Z,5.97
2023-05-18T11:27:52.363Z,5.22
2023-05-18T11:34:21.100Z,6.72
2023-05-18T11:39:24.384Z,9.90
2023-05-18T11:44:29.690Z,6.93
2023-05-18T11:49:33.596Z,3.13
2023-05-18T11:54:41.515Z,6.55
2023-05-18T11:59:46.188Z,4.90
2023-05-18T12:04:50.761Z,7.25
2023-05-18T12:09:52.896Z,8.05
2023-05-18T12:14:57.958Z,3.35
2023-05-18T12:20:00.006Z,4.13
2023-05-18T12:25:02.065Z,6.15
2023-05-18T12:31:07.406Z,4.80
2023-05-18T12:37:09.152Z,6.18
2023-05-18T12:43:10.664Z,5.70
2023-05-18T12:49:12.740Z,3.90
2023-05-18T12:55:17.543Z,5.88
2023-05-18T13:01:18.451Z,5.53
2023-05-18T13:07:20.966Z,5.00
2023-05-18T13:13:34.003Z,5.68
2023-05-18T13:19:34.791Z,8.70
2023-05-18T13:25:36.859Z,7.30
2023-05-18T13:31:37.768Z,10.15
2023-05-18T13:37:38.473Z,2.70
2023-05-18T13:43:23.844Z,4.93
2023-05-18T13:48:27.764Z,2.08
2023-05-18T13:53:29.898Z,2.30
2023-05-18T13:59:34.560Z,6.63
2023-05-18T14:04:36.595Z,4.53
2023-05-18T14:10:37.135Z,2.45
2023-05-18T14:16:39.078Z,6.88
2023-05-18T14:22:40.129Z,9.73
2023-05-18T14:27:42.289Z,7.68
2023-05-18T14:32:50.895Z,3.28
2023-05-18T14:38:35.360Z,9.63
2023-05-18T14:43:37.501Z,8.95
2023-05-18T14:48:40.994Z,9.10
2023-05-18T14:53:51.283Z,7.53
2023-05-18T14:58:53.585Z,10.40
2023-05-18T15:03:57.073Z,8.73
2023-05-18T15:09:09.963Z,8.38
2023-05-18T15:14:45.337Z,6.10
2023-05-18T15:19:59.092Z,3.92
2023-05-18T15:25:01.604Z,7.82
2023-05-18T15:30:06.880Z,5.70
2023-05-18T15:35:10.537Z,8.40
2023-05-18T15:40:12.632Z,7.03
2023-05-18T15:45:14.692Z,9.13
2023-05-18T15:50:18.533Z,9.48
2023-05-18T15:55:20.963Z,10.25
2023-05-18T16:00:24.929Z,5.32
2023-05-18T16:05:28.729Z,5.57
2023-05-18T16:10:30.872Z,9.15
2023-05-18T16:15:34.031Z,8.63
2023-05-18T16:20:37.636Z,6.45
2023-05-18T16:25:39.632Z,8.55
2023-05-18T16:30:41.654Z,8.15
2023-05-18T16:35:45.073Z,6.47
2023-05-18T16:45:49.226Z,4.55
2023-05-18T16:50:52.712Z,4.68
2023-05-18T16:55:54.754Z,4.03
2023-05-18T17:01:15.835Z,12.45
2023-05-18T17:11:31.019Z,5.97
2023-05-18T17:16:38.827Z,5.60
2023-05-18T17:21:42.613Z,5.10
2023-05-18T17:26:45.006Z,9.55
2023-05-18T17:31:47.124Z,7.50
2023-05-18T17:36:50.653Z,6.30
2023-05-18T17:41:54.284Z,9.45
2023-05-18T17:46:56.824Z,5.43
2023-05-18T17:52:00.187Z,5.22
2023-05-18T18:02:04.336Z,9.35
2023-05-18T18:07:07.869Z,7.40
2023-05-18T18:12:09.992Z,4.88
2023-05-18T18:17:12.103Z,5.32
2023-05-18T18:22:15.488Z,11.55
2023-05-18T18:27:19.358Z,7.93
2023-05-18T18:32:21.365Z,15.07
2023-05-18T18:37:24.720Z,11.05
2023-05-18T18:42:26.793Z,15.10
2023-05-18T18:47:28.844Z,12.18
2023-05-18T18:52:32.294Z,8.05
2023-05-18T19:02:36.626Z,10.57
2023-05-18T19:07:40.086Z,9.02
2023-05-18T19:12:45.227Z,11.30
2023-05-18T19:17:52.120Z,10.73
2023-05-18T19:22:55.770Z,16.20
2023-05-18T19:27:58.379Z,11.70
2023-05-18T19:33:01.167Z,6.55
2023-05-18T19:38:05.019Z,4.60
2023-05-18T19:48:09.284Z,5.18
2023-05-18T19:53:12.734Z,11.48
2023-05-18T20:03:16.680Z,5.57
2023-05-18T20:08:20.103Z,8.32
2023-05-18T20:13:22.898Z,9.32
2023-05-18T20:18:26.109Z,6.15
2023-05-18T20:23:29.752Z,5.50
2023-05-18T20:28:32.174Z,5.47
2023-05-18T20:33:37.152Z,6.35
2023-05-18T20:38:41.804Z,7.05
2023-05-18T20:43:45.334Z,7.18
2023-05-18T20:48:47.464Z,6.07
2023-05-18T20:53:50.885Z,7.18
2023-05-18T20:58:53.373Z,8.45
2023-05-18T21:03:58.768Z,5.28
2023-05-18T21:09:02.414Z,9.90
2023-05-18T21:19:06.352Z,8.27
2023-05-18T21:24:09.801Z,9.60
2023-05-18T21:34:13.793Z,6.82
2023-05-18T21:39:17.189Z,4.93
2023-05-18T21:49:21.311Z,4.47
2023-05-18T21:54:26.369Z,4.70
2023-05-18T21:59:28.402Z,6.30
2023-05-18T22:04:30.518Z,7.15
2023-05-18T22:09:34.098Z,6.93
2023-05-18T22:14:36.138Z,5.25
2023-05-18T22:19:38.223Z,6.40
2023-05-18T22:24:42.572Z,7.43
2023-05-18T22:29:44.752Z,6.05
2023-05-18T22:34:46.763Z,9.32
2023-05-18T22:39:50.110Z,10.68
2023-05-18T22:49:54.303Z,7.70
2023-05-18T22:54:57.636Z,3.15
2023-05-18T22:59:59.629Z,13.55
2023-05-18T23:05:01.756Z,5.65
2023-05-18T23:10:07.424Z,9.43
2023-05-18T23:15:10.759Z,10.20
2023-05-18T23:20:12.985Z,10.65
2023-05-18T23:25:16.733Z,18.70
2023-05-18T23:30:19.115Z,12.60
2023-05-18T23:35:21.272Z,13.23
2023-05-18T23:40:25.394Z,7.25
2023-05-18T23:45:28.249Z,6.57
2023-05-18T23:50:31.228Z,4.32
2023-05-18T23:55:36.984Z,8.35
